PWSweather.com
Personal Weather Stations
Station Observations
SHAHALMS1
Eftra, Falkenberg, HA

EftraFalkenberg, HA

Lat: 56.85, Lon: 12.65

Elevation: 140

Station Type:

http://hem.passagen.se/risarp101

High Low Average
Temperature 40.3°F4.6°C 28.9°F-1.7°C 34.4°F1.3°C
Dew Point 22.9°F-5.1°C 6.0°F-14.4°C 18.5°F-7.5°C
Winds 10.4 mph 16.7 kmh Calm Calm 5.0 mph NE8.0 kmh NE
Wind Gusts 20.0 mph32.2 kmh -- 11.0 mph17.7 kmh
Humidity 63% 37% 52%
Pressure 30.33 in1027.1 mb 30.09 in1019.0 mb -
Precipitation 0.00 in0.0 mm - -
Hour Temp Dew Point Humidity Winds Wind Gusts Pressure Precip Precip Rate Daily Precip Total
12:00 AM 29.1°F-1.6°C 6.0°F-14.4°C 37% 0.4 mph ENE0.6 kmh ENE 4.3 mph6.9 kmh 30.12 in1020.0 mb 0.00 in0.0 mm 0.00 in0.0 mm 0.00 in0.0 mm
12:25 AM 29.5°F-1.4°C 8.1°F-13.3°C 40% Calm Calm -- 30.12 in1020.0 mb 0.00 in0.0 mm 0.00 in0.0 mm 0.00 in0.0 mm
12:26 AM 29.5°F-1.4°C 8.1°F-13.3°C 40% 1.7 mph NNE2.7 kmh NNE 4.3 mph6.9 kmh 30.12 in1020.0 mb 0.00 in0.0 mm 0.00 in0.0 mm 0.00 in0.0 mm
12:27 AM 29.5°F-1.4°C 8.1°F-13.3°C 40% 1.2 mph NNE1.9 kmh NNE 4.3 mph6.9 kmh 30.12 in1020.0 mb 0.00 in0.0 mm 0.00 in0.0 mm 0.00 in0.0 mm
12:28 AM 29.5°F-1.4°C 8.1°F-13.3°C 40% 0.9 mph NNE1.4 kmh NNE 4.3 mph6.9 kmh 30.12 in1020.0 mb 0.00 in0.0 mm 0.00 in0.0 mm 0.00 in0.0 mm
12:30 AM 29.8°F-1.2°C 9.0°F-12.8°C 41% 1.0 mph NE1.6 kmh NE 6.8 mph10.9 kmh 30.12 in1020.0 mb 0.00 in0.0 mm 0.00 in0.0 mm 0.00 in0.0 mm
12:45 AM 30.4°F-0.9°C 11.0°F-11.7°C 44% 1.6 mph NE2.6 kmh NE 6.4 mph10.3 kmh 30.12 in1020.0 mb 0.00 in0.0 mm 0.00 in0.0 mm 0.00 in0.0 mm
01:00 AM 31.1°F-0.5°C 12.7°F-10.7°C 46% 2.5 mph NE4.0 kmh NE 6.1 mph9.8 kmh 30.12 in1020.0 mb 0.00 in0.0 mm 0.00 in0.0 mm 0.00 in0.0 mm
01:15 AM 31.6°F-0.2°C 13.7°F-10.2°C 47% 3.6 mph NNE5.8 kmh NNE 9.7 mph15.6 kmh 30.12 in1020.0 mb 0.00 in0.0 mm 0.00 in0.0 mm 0.00 in0.0 mm
01:30 AM 32.0°F0.0°C 14.5°F-9.7°C 48% 3.9 mph NE6.3 kmh NE 9.3 mph15.0 kmh 30.15 in1021.0 mb 0.00 in0.0 mm 0.00 in0.0 mm 0.00 in0.0 mm
01:45 AM 32.4°F0.2°C 14.8°F-9.6°C 48% 4.5 mph NE7.2 kmh NE 9.7 mph15.6 kmh 30.12 in1020.0 mb 0.00 in0.0 mm 0.00 in0.0 mm 0.00 in0.0 mm
02:00 AM 32.2°F0.1°C 14.7°F-9.6°C 48% 3.9 mph NE6.3 kmh NE 9.3 mph15.0 kmh 30.09 in1019.0 mb 0.00 in0.0 mm 0.00 in0.0 mm 0.00 in0.0 mm
02:15 AM 32.4°F0.2°C 15.3°F-9.3°C 49% 5.4 mph NE8.7 kmh NE 11.8 mph19.0 kmh 30.12 in1020.0 mb 0.00 in0.0 mm 0.00 in0.0 mm 0.00 in0.0 mm
02:30 AM 32.5°F0.3°C 15.5°F-9.2°C 49% 4.6 mph NE7.4 kmh NE 11.8 mph19.0 kmh 30.12 in1020.0 mb 0.00 in0.0 mm 0.00 in0.0 mm 0.00 in0.0 mm
02:45 AM 32.4°F0.2°C 15.3°F-9.3°C 49% 5.0 mph NE8.0 kmh NE 9.7 mph15.6 kmh 30.12 in1020.0 mb 0.00 in0.0 mm 0.00 in0.0 mm 0.00 in0.0 mm
03:00 AM 32.2°F0.1°C 15.1°F-9.4°C 49% 4.2 mph NE6.8 kmh NE 9.7 mph15.6 kmh 30.12 in1020.0 mb 0.00 in0.0 mm 0.00 in0.0 mm 0.00 in0.0 mm
03:15 AM 32.0°F0.0°C 15.0°F-9.4°C 49% 7.2 mph NE11.6 kmh NE 12.9 mph20.8 kmh 30.12 in1020.0 mb 0.00 in0.0 mm 0.00 in0.0 mm 0.00 in0.0 mm
03:30 AM 31.3°F-0.4°C 14.8°F-9.6°C 50% 5.6 mph ENE9.0 kmh ENE 10.0 mph16.1 kmh 30.12 in1020.0 mb 0.00 in0.0 mm 0.00 in0.0 mm 0.00 in0.0 mm
03:45 AM 30.7°F-0.7°C 14.3°F-9.8°C 50% 5.1 mph NE8.2 kmh NE 11.1 mph17.9 kmh 30.12 in1020.0 mb 0.00 in0.0 mm 0.00 in0.0 mm 0.00 in0.0 mm
04:00 AM 30.0°F-1.1°C 13.6°F-10.2°C 50% 0.8 mph NE1.3 kmh NE 6.1 mph9.8 kmh 30.15 in1021.0 mb 0.00 in0.0 mm 0.00 in0.0 mm 0.00 in0.0 mm
04:15 AM 29.8°F-1.2°C 13.9°F-10.1°C 51% 4.4 mph NE7.1 kmh NE 7.9 mph12.7 kmh 30.15 in1021.0 mb 0.00 in0.0 mm 0.00 in0.0 mm 0.00 in0.0 mm
04:30 AM 30.0°F-1.1°C 14.5°F-9.7°C 52% 5.1 mph NE8.2 kmh NE 9.7 mph15.6 kmh 30.15 in1021.0 mb 0.00 in0.0 mm 0.00 in0.0 mm 0.00 in0.0 mm
04:45 AM 29.7°F-1.3°C 13.7°F-10.2°C 51% 1.8 mph NE2.9 kmh NE 6.8 mph10.9 kmh 30.15 in1021.0 mb 0.00 in0.0 mm 0.00 in0.0 mm 0.00 in0.0 mm
05:00 AM 29.5°F-1.4°C 14.0°F-10.0°C 52% 1.1 mph ENE1.8 kmh ENE 5.7 mph9.2 kmh 30.15 in1021.0 mb 0.00 in0.0 mm 0.00 in0.0 mm 0.00 in0.0 mm
05:15 AM 28.9°F-1.7°C 13.5°F-10.3°C 52% 2.6 mph E4.2 kmh E 7.5 mph12.1 kmh 30.15 in1021.0 mb 0.00 in0.0 mm 0.00 in0.0 mm 0.00 in0.0 mm
05:30 AM 29.1°F-1.6°C 14.1°F-9.9°C 53% 4.0 mph ENE6.4 kmh ENE 10.4 mph16.7 kmh 30.15 in1021.0 mb 0.00 in0.0 mm 0.00 in0.0 mm 0.00 in0.0 mm
05:45 AM 30.2°F-1.0°C 15.5°F-9.2°C 54% 0.7 mph ENE1.1 kmh ENE 8.6 mph13.8 kmh 30.15 in1021.0 mb 0.00 in0.0 mm 0.00 in0.0 mm 0.00 in0.0 mm
06:00 AM 30.6°F-0.8°C 15.4°F-9.2°C 53% 0.1 mph NE0.2 kmh NE 2.5 mph4.0 kmh 30.15 in1021.0 mb 0.00 in0.0 mm 0.00 in0.0 mm 0.00 in0.0 mm
06:15 AM 31.3°F-0.4°C 16.5°F-8.6°C 54% 2.4 mph N3.9 kmh N 7.9 mph12.7 kmh 30.18 in1022.0 mb 0.00 in0.0 mm 0.00 in0.0 mm 0.00 in0.0 mm
06:30 AM 31.3°F-0.4°C 16.5°F-8.6°C 54% 6.5 mph N10.5 kmh N 12.5 mph20.1 kmh 30.15 in1021.0 mb 0.00 in0.0 mm 0.00 in0.0 mm 0.00 in0.0 mm
06:45 AM 32.5°F0.3°C 18.1°F-7.7°C 55% 7.1 mph N11.4 kmh N 12.2 mph19.6 kmh 30.18 in1022.0 mb 0.00 in0.0 mm 0.00 in0.0 mm 0.00 in0.0 mm
07:00 AM 34.3°F1.3°C 19.4°F-7.0°C 54% 6.0 mph N9.7 kmh N 10.4 mph16.7 kmh 30.18 in1022.0 mb 0.00 in0.0 mm 0.00 in0.0 mm 0.00 in0.0 mm
07:15 AM 34.9°F1.6°C 19.5°F-6.9°C 53% 6.5 mph N10.5 kmh N 12.2 mph19.6 kmh 30.18 in1022.0 mb 0.00 in0.0 mm 0.00 in0.0 mm 0.00 in0.0 mm
07:30 AM 35.4°F1.9°C 20.0°F-6.7°C 53% 7.6 mph N12.2 kmh N 16.1 mph25.9 kmh 30.18 in1022.0 mb 0.00 in0.0 mm 0.00 in0.0 mm 0.00 in0.0 mm
07:45 AM 35.1°F1.7°C 20.1°F-6.6°C 54% 7.2 mph NNE11.6 kmh NNE 10.4 mph16.7 kmh 30.21 in1023.0 mb 0.00 in0.0 mm 0.00 in0.0 mm 0.00 in0.0 mm
08:00 AM 35.6°F2.0°C 20.6°F-6.3°C 54% 7.1 mph NNE11.4 kmh NNE 12.5 mph20.1 kmh 30.18 in1022.0 mb 0.00 in0.0 mm 0.00 in0.0 mm 0.00 in0.0 mm
08:16 AM 35.4°F1.9°C 20.4°F-6.4°C 54% 9.2 mph NNE14.8 kmh NNE 15.7 mph25.3 kmh 30.15 in1021.0 mb 0.00 in0.0 mm 0.00 in0.0 mm 0.00 in0.0 mm
08:30 AM 36.3°F2.4°C 21.2°F-6.0°C 54% 8.3 mph NNE13.4 kmh NNE 19.0 mph30.6 kmh 30.15 in1021.0 mb 0.00 in0.0 mm 0.00 in0.0 mm 0.00 in0.0 mm
08:45 AM 36.3°F2.4°C 21.2°F-6.0°C 54% 9.6 mph N15.4 kmh N 16.8 mph27.0 kmh 30.18 in1022.0 mb 0.00 in0.0 mm 0.00 in0.0 mm 0.00 in0.0 mm
09:00 AM 36.3°F2.4°C 21.2°F-6.0°C 54% 7.4 mph NNE11.9 kmh NNE 16.8 mph27.0 kmh 30.18 in1022.0 mb 0.00 in0.0 mm 0.00 in0.0 mm 0.00 in0.0 mm
09:15 AM 37.4°F3.0°C 21.8°F-5.7°C 53% 7.6 mph NNE12.2 kmh NNE 16.1 mph25.9 kmh 30.15 in1021.0 mb 0.00 in0.0 mm 0.00 in0.0 mm 0.00 in0.0 mm
09:30 AM 37.9°F3.3°C 21.9°F-5.6°C 52% 8.3 mph NNE13.4 kmh NNE 15.4 mph24.8 kmh 30.15 in1021.0 mb 0.00 in0.0 mm 0.00 in0.0 mm 0.00 in0.0 mm
09:45 AM 37.8°F3.2°C 21.7°F-5.7°C 52% 9.3 mph NNE15.0 kmh NNE 20.0 mph32.2 kmh 30.15 in1021.0 mb 0.00 in0.0 mm 0.00 in0.0 mm 0.00 in0.0 mm
10:00 AM 39.0°F3.9°C 22.9°F-5.1°C 52% 7.4 mph NNE11.9 kmh NNE 17.2 mph27.7 kmh 30.15 in1021.0 mb 0.00 in0.0 mm 0.00 in0.0 mm 0.00 in0.0 mm
10:15 AM 38.7°F3.7°C 22.1°F-5.5°C 51% 7.7 mph NNE12.4 kmh NNE 16.5 mph26.6 kmh 30.15 in1021.0 mb 0.00 in0.0 mm 0.00 in0.0 mm 0.00 in0.0 mm
10:30 AM 38.7°F3.7°C 22.1°F-5.5°C 51% 9.3 mph N15.0 kmh N 16.8 mph27.0 kmh 30.15 in1021.0 mb 0.00 in0.0 mm 0.00 in0.0 mm 0.00 in0.0 mm
10:45 AM 39.4°F4.1°C 22.7°F-5.2°C 51% 9.0 mph N14.5 kmh N 14.0 mph22.5 kmh 30.15 in1021.0 mb 0.00 in0.0 mm 0.00 in0.0 mm 0.00 in0.0 mm
11:00 AM 39.7°F4.3°C 22.6°F-5.2°C 50% 8.3 mph NNE13.4 kmh NNE 15.7 mph25.3 kmh 30.15 in1021.0 mb 0.00 in0.0 mm 0.00 in0.0 mm 0.00 in0.0 mm
11:15 AM 40.3°F4.6°C 22.6°F-5.2°C 49% 6.8 mph NE10.9 kmh NE 10.4 mph16.7 kmh 30.15 in1021.0 mb 0.00 in0.0 mm 0.00 in0.0 mm 0.00 in0.0 mm
11:30 AM 40.1°F4.5°C 22.0°F-5.6°C 48% 8.6 mph NE13.8 kmh NE 14.0 mph22.5 kmh 30.15 in1021.0 mb 0.00 in0.0 mm 0.00 in0.0 mm 0.00 in0.0 mm
11:45 AM 40.3°F4.6°C 22.6°F-5.2°C 49% 8.5 mph NNE13.7 kmh NNE 16.1 mph25.9 kmh 30.18 in1022.0 mb 0.00 in0.0 mm 0.00 in0.0 mm 0.00 in0.0 mm
12:00 PM 39.2°F4.0°C 21.6°F-5.8°C 49% 10.4 mph N16.7 kmh N 16.8 mph27.0 kmh 30.18 in1022.0 mb 0.00 in0.0 mm 0.00 in0.0 mm 0.00 in0.0 mm
12:15 PM 39.4°F4.1°C 21.8°F-5.7°C 49% 7.3 mph NE11.7 kmh NE 12.2 mph19.6 kmh 30.18 in1022.0 mb 0.00 in0.0 mm 0.00 in0.0 mm 0.00 in0.0 mm
12:30 PM 39.2°F4.0°C 21.1°F-6.1°C 48% 7.5 mph NE12.1 kmh NE 14.0 mph22.5 kmh 30.18 in1022.0 mb 0.00 in0.0 mm 0.00 in0.0 mm 0.00 in0.0 mm
12:45 PM 39.2°F4.0°C 22.1°F-5.5°C 50% 8.3 mph N13.4 kmh N 16.5 mph26.6 kmh 30.21 in1023.0 mb 0.00 in0.0 mm 0.00 in0.0 mm 0.00 in0.0 mm
01:00 PM 39.4°F4.1°C 22.3°F-5.4°C 50% 8.1 mph NNE13.0 kmh NNE 16.8 mph27.0 kmh 30.18 in1022.0 mb 0.00 in0.0 mm 0.00 in0.0 mm 0.00 in0.0 mm
01:15 PM 39.6°F4.2°C 22.0°F-5.6°C 49% 6.7 mph NE10.8 kmh NE 13.6 mph21.9 kmh 30.21 in1023.0 mb 0.00 in0.0 mm 0.00 in0.0 mm 0.00 in0.0 mm
01:30 PM 39.7°F4.3°C 21.6°F-5.8°C 48% 6.2 mph NE10.0 kmh NE 11.5 mph18.5 kmh 30.21 in1023.0 mb 0.00 in0.0 mm 0.00 in0.0 mm 0.00 in0.0 mm
01:45 PM 39.7°F4.3°C 21.6°F-5.8°C 48% 5.6 mph NE9.0 kmh NE 10.4 mph16.7 kmh 30.21 in1023.0 mb 0.00 in0.0 mm 0.00 in0.0 mm 0.00 in0.0 mm
02:00 PM 39.0°F3.9°C 21.5°F-5.8°C 49% 8.3 mph NNE13.4 kmh NNE 13.6 mph21.9 kmh 30.21 in1023.0 mb 0.00 in0.0 mm 0.00 in0.0 mm 0.00 in0.0 mm
02:15 PM 39.0°F3.9°C 21.9°F-5.6°C 50% 8.9 mph N14.3 kmh N 16.1 mph25.9 kmh 30.21 in1023.0 mb 0.00 in0.0 mm 0.00 in0.0 mm 0.00 in0.0 mm
02:30 PM 39.0°F3.9°C 21.9°F-5.6°C 50% 8.2 mph N13.2 kmh N 14.3 mph23.0 kmh 30.21 in1023.0 mb 0.00 in0.0 mm 0.00 in0.0 mm 0.00 in0.0 mm
02:45 PM 38.7°F3.7°C 21.6°F-5.8°C 50% 8.5 mph N13.7 kmh N 16.5 mph26.6 kmh 30.24 in1024.0 mb 0.00 in0.0 mm 0.00 in0.0 mm 0.00 in0.0 mm
03:00 PM 38.5°F3.6°C 21.4°F-5.9°C 50% 8.2 mph N13.2 kmh N 14.0 mph22.5 kmh 30.21 in1023.0 mb 0.00 in0.0 mm 0.00 in0.0 mm 0.00 in0.0 mm
03:15 PM 38.5°F3.6°C 21.4°F-5.9°C 50% 6.8 mph NE10.9 kmh NE 12.5 mph20.1 kmh 30.24 in1024.0 mb 0.00 in0.0 mm 0.00 in0.0 mm 0.00 in0.0 mm
03:30 PM 38.5°F3.6°C 21.4°F-5.9°C 50% 7.4 mph NE11.9 kmh NE 13.6 mph21.9 kmh 30.24 in1024.0 mb 0.00 in0.0 mm 0.00 in0.0 mm 0.00 in0.0 mm
03:45 PM 37.9°F3.3°C 21.4°F-5.9°C 51% 8.6 mph N13.8 kmh N 16.5 mph26.6 kmh 30.24 in1024.0 mb 0.00 in0.0 mm 0.00 in0.0 mm 0.00 in0.0 mm
04:00 PM 37.8°F3.2°C 21.2°F-6.0°C 51% 8.5 mph N13.7 kmh N 14.0 mph22.5 kmh 30.24 in1024.0 mb 0.00 in0.0 mm 0.00 in0.0 mm 0.00 in0.0 mm
04:16 PM 37.4°F3.0°C 20.9°F-6.2°C 51% 7.2 mph NNE11.6 kmh NNE 13.6 mph21.9 kmh 30.27 in1025.1 mb 0.00 in0.0 mm 0.00 in0.0 mm 0.00 in0.0 mm
04:31 PM 37.0°F2.8°C 21.0°F-6.1°C 52% 5.1 mph NE8.2 kmh NE 11.8 mph19.0 kmh 30.24 in1024.0 mb 0.00 in0.0 mm 0.00 in0.0 mm 0.00 in0.0 mm
04:45 PM 36.9°F2.7°C 20.9°F-6.2°C 52% 5.4 mph NE8.7 kmh NE 10.4 mph16.7 kmh 30.24 in1024.0 mb 0.00 in0.0 mm 0.00 in0.0 mm 0.00 in0.0 mm
05:00 PM 36.7°F2.6°C 20.7°F-6.3°C 52% 6.2 mph NE10.0 kmh NE 10.4 mph16.7 kmh 30.21 in1023.0 mb 0.00 in0.0 mm 0.00 in0.0 mm 0.00 in0.0 mm
05:15 PM 36.3°F2.4°C 20.4°F-6.4°C 52% 5.2 mph NE8.4 kmh NE 11.1 mph17.9 kmh 30.24 in1024.0 mb 0.00 in0.0 mm 0.00 in0.0 mm 0.00 in0.0 mm
05:30 PM 36.1°F2.3°C 20.2°F-6.6°C 52% 6.0 mph NE9.7 kmh NE 12.2 mph19.6 kmh 30.21 in1023.0 mb 0.00 in0.0 mm 0.00 in0.0 mm 0.00 in0.0 mm
05:45 PM 36.1°F2.3°C 20.2°F-6.6°C 52% 6.2 mph NE10.0 kmh NE 12.2 mph19.6 kmh 30.24 in1024.0 mb 0.00 in0.0 mm 0.00 in0.0 mm 0.00 in0.0 mm
06:00 PM 36.0°F2.2°C 20.0°F-6.7°C 52% 5.1 mph NE8.2 kmh NE 10.4 mph16.7 kmh 30.24 in1024.0 mb 0.00 in0.0 mm 0.00 in0.0 mm 0.00 in0.0 mm
06:15 PM 36.0°F2.2°C 20.0°F-6.7°C 52% 5.1 mph NE8.2 kmh NE 9.3 mph15.0 kmh 30.24 in1024.0 mb 0.00 in0.0 mm 0.00 in0.0 mm 0.00 in0.0 mm
06:30 PM 35.4°F1.9°C 20.0°F-6.7°C 53% 6.4 mph ENE10.3 kmh ENE 12.2 mph19.6 kmh 30.27 in1025.1 mb 0.00 in0.0 mm 0.00 in0.0 mm 0.00 in0.0 mm
06:45 PM 34.9°F1.6°C 19.9°F-6.7°C 54% 5.8 mph ENE9.3 kmh ENE 10.4 mph16.7 kmh 30.27 in1025.1 mb 0.00 in0.0 mm 0.00 in0.0 mm 0.00 in0.0 mm
07:00 PM 34.5°F1.4°C 20.0°F-6.7°C 55% 6.6 mph NE10.6 kmh NE 12.9 mph20.8 kmh 30.27 in1025.1 mb 0.00 in0.0 mm 0.00 in0.0 mm 0.00 in0.0 mm
07:15 PM 34.0°F1.1°C 20.3°F-6.5°C 57% 4.9 mph NNE7.9 kmh NNE 9.3 mph15.0 kmh 30.27 in1025.1 mb 0.00 in0.0 mm 0.00 in0.0 mm 0.00 in0.0 mm
07:30 PM 33.4°F0.8°C 20.2°F-6.6°C 58% 4.4 mph NE7.1 kmh NE 11.5 mph18.5 kmh 30.27 in1025.1 mb 0.00 in0.0 mm 0.00 in0.0 mm 0.00 in0.0 mm
07:45 PM 32.9°F0.5°C 20.9°F-6.2°C 61% 5.2 mph NE8.4 kmh NE 9.7 mph15.6 kmh 30.30 in1026.1 mb 0.00 in0.0 mm 0.00 in0.0 mm 0.00 in0.0 mm
08:00 PM 32.5°F0.3°C 21.3°F-5.9°C 63% 5.3 mph NE8.5 kmh NE 8.9 mph14.3 kmh 30.30 in1026.1 mb 0.00 in0.0 mm 0.00 in0.0 mm 0.00 in0.0 mm
08:15 PM 32.7°F0.4°C 21.5°F-5.8°C 63% 5.6 mph NE9.0 kmh NE 10.4 mph16.7 kmh 30.30 in1026.1 mb 0.00 in0.0 mm 0.00 in0.0 mm 0.00 in0.0 mm
08:30 PM 32.9°F0.5°C 21.3°F-5.9°C 62% 5.1 mph NE8.2 kmh NE 11.5 mph18.5 kmh 30.33 in1027.1 mb 0.00 in0.0 mm 0.00 in0.0 mm 0.00 in0.0 mm
08:45 PM 32.9°F0.5°C 21.3°F-5.9°C 62% 0.4 mph NE0.6 kmh NE 6.1 mph9.8 kmh 30.30 in1026.1 mb 0.00 in0.0 mm 0.00 in0.0 mm 0.00 in0.0 mm
09:00 PM 32.9°F0.5°C 21.3°F-5.9°C 62% 0.9 mph NE1.4 kmh NE 5.4 mph8.7 kmh 30.27 in1025.1 mb 0.00 in0.0 mm 0.00 in0.0 mm 0.00 in0.0 mm
09:15 PM 32.9°F0.5°C 20.9°F-6.2°C 61% 1.6 mph ENE2.6 kmh ENE 6.8 mph10.9 kmh 30.30 in1026.1 mb 0.00 in0.0 mm 0.00 in0.0 mm 0.00 in0.0 mm
09:30 PM 32.9°F0.5°C 20.9°F-6.2°C 61% 4.4 mph NE7.1 kmh NE 9.3 mph15.0 kmh 30.30 in1026.1 mb 0.00 in0.0 mm 0.00 in0.0 mm 0.00 in0.0 mm
09:45 PM 32.7°F0.4°C 20.7°F-6.3°C 61% 2.4 mph ENE3.9 kmh ENE 10.4 mph16.7 kmh 30.30 in1026.1 mb 0.00 in0.0 mm 0.00 in0.0 mm 0.00 in0.0 mm
10:00 PM 32.0°F0.0°C 19.7°F-6.8°C 60% 1.9 mph E3.1 kmh E 8.9 mph14.3 kmh 30.30 in1026.1 mb 0.00 in0.0 mm 0.00 in0.0 mm 0.00 in0.0 mm
10:15 PM 31.3°F-0.4°C 19.0°F-7.2°C 60% 0.5 mph E0.8 kmh E 7.5 mph12.1 kmh 30.27 in1025.1 mb 0.00 in0.0 mm 0.00 in0.0 mm 0.00 in0.0 mm
10:30 PM 30.4°F-0.9°C 18.1°F-7.7°C 60% 0.4 mph E0.6 kmh E 5.4 mph8.7 kmh 30.27 in1025.1 mb 0.00 in0.0 mm 0.00 in0.0 mm 0.00 in0.0 mm
10:45 PM 30.0°F-1.1°C 17.8°F-7.9°C 60% 0.1 mph NE0.2 kmh NE 2.5 mph4.0 kmh 30.27 in1025.1 mb 0.00 in0.0 mm 0.00 in0.0 mm 0.00 in0.0 mm
11:00 PM 29.7°F-1.3°C 17.8°F-7.9°C 61% 0.1 mph ENE0.2 kmh ENE 1.8 mph2.9 kmh 30.30 in1026.1 mb 0.00 in0.0 mm 0.00 in0.0 mm 0.00 in0.0 mm
11:15 PM 29.7°F-1.3°C 17.8°F-7.9°C 61% Calm Calm -- 30.27 in1025.1 mb 0.00 in0.0 mm 0.00 in0.0 mm 0.00 in0.0 mm
11:30 PM 29.7°F-1.3°C 18.2°F-7.7°C 62% Calm Calm -- 30.30 in1026.1 mb 0.00 in0.0 mm 0.00 in0.0 mm 0.00 in0.0 mm
11:45 PM 29.7°F-1.3°C 18.2°F-7.7°C 62% 0.1 mph ENE0.2 kmh ENE 3.2 mph5.1 kmh 30.27 in1025.1 mb 0.00 in0.0 mm 0.00 in0.0 mm 0.00 in0.0 mm